sensor_id;sensor_type;location;lat;lon;timestamp;P1;durP1;ratioP1;P2;durP2;ratioP2
65717;SDS011;52445;52.466;-1.016;2023-02-11T00:00:14;8.27;;;4.32;;
65717;SDS011;52445;52.466;-1.016;2023-02-11T00:02:42;6.55;;;4.05;;
65717;SDS011;52445;52.466;-1.016;2023-02-11T00:05:12;6.82;;;4.63;;
65717;SDS011;52445;52.466;-1.016;2023-02-11T00:07:39;11.20;;;5.78;;
65717;SDS011;52445;52.466;-1.016;2023-02-11T00:10:06;6.65;;;4.15;;
65717;SDS011;52445;52.466;-1.016;2023-02-11T00:12:34;9.98;;;4.78;;
65717;SDS011;52445;52.466;-1.016;2023-02-11T00:15:01;7.50;;;4.50;;
65717;SDS011;52445;52.466;-1.016;2023-02-11T00:17:29;8.60;;;4.63;;
65717;SDS011;52445;52.466;-1.016;2023-02-11T00:19:55;8.00;;;4.45;;
65717;SDS011;52445;52.466;-1.016;2023-02-11T00:22:22;7.53;;;4.68;;
65717;SDS011;52445;52.466;-1.016;2023-02-11T00:24:48;8.07;;;5.47;;
65717;SDS011;52445;52.466;-1.016;2023-02-11T00:27:15;7.10;;;3.70;;
65717;SDS011;52445;52.466;-1.016;2023-02-11T00:29:42;8.48;;;4.68;;
65717;SDS011;52445;52.466;-1.016;2023-02-11T00:32:08;6.47;;;4.63;;
65717;SDS011;52445;52.466;-1.016;2023-02-11T00:34:36;8.60;;;4.30;;
65717;SDS011;52445;52.466;-1.016;2023-02-11T00:37:03;7.85;;;4.65;;
65717;SDS011;52445;52.466;-1.016;2023-02-11T00:39:30;9.23;;;4.35;;
65717;SDS011;52445;52.466;-1.016;2023-02-11T00:41:57;7.00;;;3.17;;
65717;SDS011;52445;52.466;-1.016;2023-02-11T00:44:24;6.63;;;4.13;;
65717;SDS011;52445;52.466;-1.016;2023-02-11T00:46:50;6.40;;;3.63;;
65717;SDS011;52445;52.466;-1.016;2023-02-11T00:49:17;7.28;;;4.78;;
65717;SDS011;52445;52.466;-1.016;2023-02-11T00:51:44;8.02;;;5.68;;
65717;SDS011;52445;52.466;-1.016;2023-02-11T00:54:11;7.80;;;4.10;;
65717;SDS011;52445;52.466;-1.016;2023-02-11T00:56:37;7.18;;;4.43;;
65717;SDS011;52445;52.466;-1.016;2023-02-11T00:59:04;6.15;;;3.75;;
65717;SDS011;52445;52.466;-1.016;2023-02-11T01:01:30;7.10;;;4.60;;
65717;SDS011;52445;52.466;-1.016;2023-02-11T01:03:57;7.25;;;4.18;;
65717;SDS011;52445;52.466;-1.016;2023-02-11T01:06:24;8.13;;;4.53;;
65717;SDS011;52445;52.466;-1.016;2023-02-11T01:08:50;8.40;;;4.05;;
65717;SDS011;52445;52.466;-1.016;2023-02-11T01:11:17;6.15;;;3.47;;
65717;SDS011;52445;52.466;-1.016;2023-02-11T01:13:46;9.68;;;4.40;;
65717;SDS011;52445;52.466;-1.016;2023-02-11T01:16:14;8.00;;;4.45;;
65717;SDS011;52445;52.466;-1.016;2023-02-11T01:18:41;9.05;;;4.32;;
65717;SDS011;52445;52.466;-1.016;2023-02-11T01:21:09;7.28;;;4.18;;
65717;SDS011;52445;52.466;-1.016;2023-02-11T01:23:37;7.13;;;3.88;;
65717;SDS011;52445;52.466;-1.016;2023-02-11T01:26:03;8.57;;;4.25;;
65717;SDS011;52445;52.466;-1.016;2023-02-11T01:28:30;9.05;;;4.22;;
65717;SDS011;52445;52.466;-1.016;2023-02-11T01:30:58;7.82;;;4.32;;
65717;SDS011;52445;52.466;-1.016;2023-02-11T01:33:25;9.55;;;5.05;;
65717;SDS011;52445;52.466;-1.016;2023-02-11T01:35:52;7.22;;;3.78;;
65717;SDS011;52445;52.466;-1.016;2023-02-11T01:38:20;6.28;;;3.78;;
65717;SDS011;52445;52.466;-1.016;2023-02-11T01:40:50;6.57;;;3.80;;
65717;SDS011;52445;52.466;-1.016;2023-02-11T01:43:19;8.00;;;4.47;;
65717;SDS011;52445;52.466;-1.016;2023-02-11T01:48:24;8.57;;;3.13;;
65717;SDS011;52445;52.466;-1.016;2023-02-11T01:50:58;6.88;;;2.38;;
65717;SDS011;52445;52.466;-1.016;2023-02-11T01:53:29;5.95;;;2.95;;
65717;SDS011;52445;52.466;-1.016;2023-02-11T01:56:18;9.73;;;2.92;;
65717;SDS011;52445;52.466;-1.016;2023-02-11T01:59:07;6.47;;;2.33;;
65717;SDS011;52445;52.466;-1.016;2023-02-11T02:01:38;7.32;;;2.70;;
65717;SDS011;52445;52.466;-1.016;2023-02-11T02:04:08;6.88;;;2.55;;
65717;SDS011;52445;52.466;-1.016;2023-02-11T02:06:39;8.13;;;3.22;;
65717;SDS011;52445;52.466;-1.016;2023-02-11T02:09:22;6.70;;;2.78;;
65717;SDS011;52445;52.466;-1.016;2023-02-11T02:11:53;6.88;;;2.63;;
65717;SDS011;52445;52.466;-1.016;2023-02-11T02:14:20;5.40;;;2.38;;
65717;SDS011;52445;52.466;-1.016;2023-02-11T02:16:46;7.32;;;2.17;;
65717;SDS011;52445;52.466;-1.016;2023-02-11T02:25:08;12.50;;;4.93;;
65717;SDS011;52445;52.466;-1.016;2023-02-11T02:33:32;7.50;;;2.92;;
65717;SDS011;52445;52.466;-1.016;2023-02-11T02:41:18;5.10;;;1.70;;
65717;SDS011;52445;52.466;-1.016;2023-02-11T02:43:48;6.55;;;3.72;;
65717;SDS011;52445;52.466;-1.016;2023-02-11T02:46:19;6.05;;;3.83;;
65717;SDS011;52445;52.466;-1.016;2023-02-11T02:48:48;5.28;;;3.10;;
65717;SDS011;52445;52.466;-1.016;2023-02-11T02:59:24;4.45;;;1.88;;
65717;SDS011;52445;52.466;-1.016;2023-02-11T03:07:21;7.97;;;2.58;;
65717;SDS011;52445;52.466;-1.016;2023-02-11T03:10:00;7.25;;;2.40;;
65717;SDS011;52445;52.466;-1.016;2023-02-11T03:12:33;8.18;;;2.78;;
65717;SDS011;52445;52.466;-1.016;2023-02-11T03:15:02;5.05;;;2.45;;
65717;SDS011;52445;52.466;-1.016;2023-02-11T03:17:32;6.15;;;2.20;;
65717;SDS011;52445;52.466;-1.016;2023-02-11T03:20:02;6.85;;;2.85;;
65717;SDS011;52445;52.466;-1.016;2023-02-11T03:22:32;6.57;;;2.30;;
65717;SDS011;52445;52.466;-1.016;2023-02-11T03:25:02;8.63;;;2.67;;
65717;SDS011;52445;52.466;-1.016;2023-02-11T03:27:37;7.00;;;2.15;;
65717;SDS011;52445;52.466;-1.016;2023-02-11T03:30:12;8.65;;;2.72;;
65717;SDS011;52445;52.466;-1.016;2023-02-11T03:35:24;6.28;;;2.30;;
65717;SDS011;52445;52.466;-1.016;2023-02-11T03:38:04;7.53;;;2.80;;
65717;SDS011;52445;52.466;-1.016;2023-02-11T03:40:35;7.15;;;3.08;;
65717;SDS011;52445;52.466;-1.016;2023-02-11T03:43:07;8.48;;;2.75;;
65717;SDS011;52445;52.466;-1.016;2023-02-11T03:45:38;8.57;;;2.40;;
65717;SDS011;52445;52.466;-1.016;2023-02-11T03:48:08;6.95;;;2.97;;
65717;SDS011;52445;52.466;-1.016;2023-02-11T03:50:39;7.75;;;3.08;;
65717;SDS011;52445;52.466;-1.016;2023-02-11T03:53:07;6.10;;;2.53;;
65717;SDS011;52445;52.466;-1.016;2023-02-11T03:55:36;5.10;;;2.17;;
65717;SDS011;52445;52.466;-1.016;2023-02-11T03:58:05;7.65;;;2.55;;
65717;SDS011;52445;52.466;-1.016;2023-02-11T04:00:33;5.35;;;2.17;;
65717;SDS011;52445;52.466;-1.016;2023-02-11T04:03:05;6.13;;;1.95;;
65717;SDS011;52445;52.466;-1.016;2023-02-11T04:05:32;7.18;;;2.15;;
65717;SDS011;52445;52.466;-1.016;2023-02-11T04:07:59;6.65;;;2.88;;
65717;SDS011;52445;52.466;-1.016;2023-02-11T04:10:26;5.55;;;2.20;;
65717;SDS011;52445;52.466;-1.016;2023-02-11T04:12:53;8.27;;;2.42;;
65717;SDS011;52445;52.466;-1.016;2023-02-11T04:15:19;6.53;;;2.42;;
65717;SDS011;52445;52.466;-1.016;2023-02-11T04:17:46;4.88;;;1.98;;
65717;SDS011;52445;52.466;-1.016;2023-02-11T04:20:12;5.03;;;2.13;;
65717;SDS011;52445;52.466;-1.016;2023-02-11T04:22:39;7.63;;;1.85;;
65717;SDS011;52445;52.466;-1.016;2023-02-11T04:25:06;6.40;;;2.28;;
65717;SDS011;52445;52.466;-1.016;2023-02-11T04:27:33;6.55;;;2.70;;
65717;SDS011;52445;52.466;-1.016;2023-02-11T04:30:00;7.75;;;2.63;;
65717;SDS011;52445;52.466;-1.016;2023-02-11T04:32:27;8.50;;;2.05;;
65717;SDS011;52445;52.466;-1.016;2023-02-11T04:34:53;6.65;;;2.30;;
65717;SDS011;52445;52.466;-1.016;2023-02-11T04:37:20;6.78;;;1.73;;
65717;SDS011;52445;52.466;-1.016;2023-02-11T04:39:47;5.30;;;2.30;;
65717;SDS011;52445;52.466;-1.016;2023-02-11T04:42:13;6.78;;;2.85;;
65717;SDS011;52445;52.466;-1.016;2023-02-11T04:44:40;6.18;;;2.13;;
65717;SDS011;52445;52.466;-1.016;2023-02-11T04:47:06;9.75;;;2.72;;
65717;SDS011;52445;52.466;-1.016;2023-02-11T04:49:33;10.93;;;2.95;;
65717;SDS011;52445;52.466;-1.016;2023-02-11T04:52:00;7.60;;;2.63;;
65717;SDS011;52445;52.466;-1.016;2023-02-11T04:54:26;8.48;;;2.60;;
65717;SDS011;52445;52.466;-1.016;2023-02-11T04:56:53;10.13;;;3.40;;
65717;SDS011;52445;52.466;-1.016;2023-02-11T04:59:19;7.68;;;2.63;;
65717;SDS011;52445;52.466;-1.016;2023-02-11T05:01:46;7.18;;;2.45;;
65717;SDS011;52445;52.466;-1.016;2023-02-11T05:04:13;9.45;;;2.55;;
65717;SDS011;52445;52.466;-1.016;2023-02-11T05:06:39;9.30;;;2.63;;
65717;SDS011;52445;52.466;-1.016;2023-02-11T05:09:06;7.13;;;2.65;;
65717;SDS011;52445;52.466;-1.016;2023-02-11T05:11:34;7.95;;;2.65;;
65717;SDS011;52445;52.466;-1.016;2023-02-11T05:14:01;9.57;;;2.83;;
65717;SDS011;52445;52.466;-1.016;2023-02-11T05:16:28;7.72;;;3.08;;
65717;SDS011;52445;52.466;-1.016;2023-02-11T05:18:55;10.50;;;4.28;;
65717;SDS011;52445;52.466;-1.016;2023-02-11T05:21:21;8.32;;;2.67;;
65717;SDS011;52445;52.466;-1.016;2023-02-11T05:23:48;7.78;;;3.35;;
65717;SDS011;52445;52.466;-1.016;2023-02-11T05:26:15;8.02;;;3.13;;
65717;SDS011;52445;52.466;-1.016;2023-02-11T05:28:42;9.95;;;3.20;;
65717;SDS011;52445;52.466;-1.016;2023-02-11T05:31:10;8.95;;;3.28;;
65717;SDS011;52445;52.466;-1.016;2023-02-11T05:33:40;7.82;;;3.05;;
65717;SDS011;52445;52.466;-1.016;2023-02-11T05:36:08;8.02;;;2.65;;
65717;SDS011;52445;52.466;-1.016;2023-02-11T05:38:36;7.32;;;2.40;;
65717;SDS011;52445;52.466;-1.016;2023-02-11T05:41:04;12.13;;;2.33;;
65717;SDS011;52445;52.466;-1.016;2023-02-11T05:43:31;7.35;;;2.83;;
65717;SDS011;52445;52.466;-1.016;2023-02-11T05:46:00;7.13;;;2.40;;
65717;SDS011;52445;52.466;-1.016;2023-02-11T05:48:27;8.15;;;2.38;;
65717;SDS011;52445;52.466;-1.016;2023-02-11T05:50:53;6.82;;;3.13;;
65717;SDS011;52445;52.466;-1.016;2023-02-11T05:53:20;9.48;;;2.88;;
65717;SDS011;52445;52.466;-1.016;2023-02-11T05:55:47;6.30;;;2.45;;
65717;SDS011;52445;52.466;-1.016;2023-02-11T05:58:14;7.18;;;3.00;;
65717;SDS011;52445;52.466;-1.016;2023-02-11T06:00:41;6.28;;;2.45;;
65717;SDS011;52445;52.466;-1.016;2023-02-11T06:03:07;8.15;;;2.25;;
65717;SDS011;52445;52.466;-1.016;2023-02-11T06:05:34;6.40;;;2.33;;
65717;SDS011;52445;52.466;-1.016;2023-02-11T06:08:00;5.40;;;2.33;;
65717;SDS011;52445;52.466;-1.016;2023-02-11T06:10:27;5.32;;;1.92;;
65717;SDS011;52445;52.466;-1.016;2023-02-11T06:12:53;11.73;;;2.70;;
65717;SDS011;52445;52.466;-1.016;2023-02-11T06:15:20;7.05;;;2.22;;
65717;SDS011;52445;52.466;-1.016;2023-02-11T06:17:47;5.82;;;1.95;;
65717;SDS011;52445;52.466;-1.016;2023-02-11T06:20:13;6.85;;;2.25;;
65717;SDS011;52445;52.466;-1.016;2023-02-11T06:22:40;7.60;;;2.15;;
65717;SDS011;52445;52.466;-1.016;2023-02-11T06:25:07;9.30;;;2.28;;
65717;SDS011;52445;52.466;-1.016;2023-02-11T06:27:34;7.50;;;2.42;;
65717;SDS011;52445;52.466;-1.016;2023-02-11T06:30:00;6.95;;;3.05;;
65717;SDS011;52445;52.466;-1.016;2023-02-11T06:32:27;7.25;;;2.25;;
65717;SDS011;52445;52.466;-1.016;2023-02-11T06:35:09;6.68;;;2.47;;
65717;SDS011;52445;52.466;-1.016;2023-02-11T06:37:37;9.27;;;2.75;;
65717;SDS011;52445;52.466;-1.016;2023-02-11T06:40:05;5.22;;;1.90;;
65717;SDS011;52445;52.466;-1.016;2023-02-11T06:42:31;6.85;;;2.30;;
65717;SDS011;52445;52.466;-1.016;2023-02-11T06:44:59;7.32;;;2.80;;
65717;SDS011;52445;52.466;-1.016;2023-02-11T06:47:26;5.85;;;2.17;;
65717;SDS011;52445;52.466;-1.016;2023-02-11T06:49:52;5.10;;;1.67;;
65717;SDS011;52445;52.466;-1.016;2023-02-11T06:52:19;7.65;;;2.85;;
65717;SDS011;52445;52.466;-1.016;2023-02-11T06:54:46;8.57;;;2.33;;
65717;SDS011;52445;52.466;-1.016;2023-02-11T06:57:12;6.72;;;2.65;;
65717;SDS011;52445;52.466;-1.016;2023-02-11T06:59:39;7.90;;;2.33;;
65717;SDS011;52445;52.466;-1.016;2023-02-11T07:02:07;9.00;;;2.70;;
65717;SDS011;52445;52.466;-1.016;2023-02-11T07:04:35;6.15;;;2.13;;
65717;SDS011;52445;52.466;-1.016;2023-02-11T07:07:02;6.25;;;2.33;;
65717;SDS011;52445;52.466;-1.016;2023-02-11T07:09:28;8.13;;;2.35;;
65717;SDS011;52445;52.466;-1.016;2023-02-11T07:11:55;4.75;;;2.63;;
65717;SDS011;52445;52.466;-1.016;2023-02-11T07:14:22;6.00;;;1.55;;
65717;SDS011;52445;52.466;-1.016;2023-02-11T07:16:48;7.35;;;2.58;;
65717;SDS011;52445;52.466;-1.016;2023-02-11T07:19:15;4.15;;;2.15;;
65717;SDS011;52445;52.466;-1.016;2023-02-11T07:21:42;6.20;;;1.80;;
65717;SDS011;52445;52.466;-1.016;2023-02-11T07:24:08;5.35;;;2.53;;
65717;SDS011;52445;52.466;-1.016;2023-02-11T07:26:36;5.20;;;1.85;;
65717;SDS011;52445;52.466;-1.016;2023-02-11T07:29:03;5.53;;;2.10;;
65717;SDS011;52445;52.466;-1.016;2023-02-11T07:31:30;9.45;;;2.47;;
65717;SDS011;52445;52.466;-1.016;2023-02-11T07:33:58;11.80;;;3.00;;
65717;SDS011;52445;52.466;-1.016;2023-02-11T07:36:27;9.02;;;2.60;;
65717;SDS011;52445;52.466;-1.016;2023-02-11T07:38:54;16.67;;;6.15;;
65717;SDS011;52445;52.466;-1.016;2023-02-11T07:41:23;20.02;;;9.07;;
65717;SDS011;52445;52.466;-1.016;2023-02-11T07:43:50;27.73;;;14.27;;
65717;SDS011;52445;52.466;-1.016;2023-02-11T07:46:19;21.08;;;11.25;;
65717;SDS011;52445;52.466;-1.016;2023-02-11T07:48:48;14.23;;;8.95;;
65717;SDS011;52445;52.466;-1.016;2023-02-11T07:51:16;12.98;;;8.57;;
65717;SDS011;52445;52.466;-1.016;2023-02-11T07:53:44;14.95;;;6.85;;
65717;SDS011;52445;52.466;-1.016;2023-02-11T07:56:12;9.52;;;5.18;;
65717;SDS011;52445;52.466;-1.016;2023-02-11T07:58:39;14.60;;;6.90;;
65717;SDS011;52445;52.466;-1.016;2023-02-11T08:01:09;12.07;;;4.68;;
65717;SDS011;52445;52.466;-1.016;2023-02-11T08:03:39;9.57;;;4.22;;
65717;SDS011;52445;52.466;-1.016;2023-02-11T08:06:09;7.03;;;3.92;;
65717;SDS011;52445;52.466;-1.016;2023-02-11T08:08:38;7.28;;;2.78;;
65717;SDS011;52445;52.466;-1.016;2023-02-11T08:11:06;5.95;;;3.13;;
65717;SDS011;52445;52.466;-1.016;2023-02-11T08:13:33;8.70;;;4.57;;
65717;SDS011;52445;52.466;-1.016;2023-02-11T08:16:00;9.55;;;3.85;;
65717;SDS011;52445;52.466;-1.016;2023-02-11T08:18:28;5.88;;;3.15;;
65717;SDS011;52445;52.466;-1.016;2023-02-11T08:20:55;8.43;;;3.15;;
65717;SDS011;52445;52.466;-1.016;2023-02-11T08:23:22;18.77;;;8.90;;
65717;SDS011;52445;52.466;-1.016;2023-02-11T08:25:48;23.35;;;12.32;;
65717;SDS011;52445;52.466;-1.016;2023-02-11T08:28:15;20.55;;;10.82;;
65717;SDS011;52445;52.466;-1.016;2023-02-11T08:30:41;13.52;;;7.55;;
65717;SDS011;52445;52.466;-1.016;2023-02-11T08:33:08;11.30;;;4.93;;
65717;SDS011;52445;52.466;-1.016;2023-02-11T08:35:34;7.50;;;4.35;;
65717;SDS011;52445;52.466;-1.016;2023-02-11T08:38:02;7.53;;;3.65;;
65717;SDS011;52445;52.466;-1.016;2023-02-11T08:40:29;8.63;;;3.83;;
65717;SDS011;52445;52.466;-1.016;2023-02-11T08:42:55;11.20;;;3.80;;
65717;SDS011;52445;52.466;-1.016;2023-02-11T08:45:22;14.73;;;4.07;;
65717;SDS011;52445;52.466;-1.016;2023-02-11T08:47:48;13.27;;;3.42;;
65717;SDS011;52445;52.466;-1.016;2023-02-11T08:50:15;7.85;;;2.58;;
65717;SDS011;52445;52.466;-1.016;2023-02-11T08:52:41;6.43;;;2.33;;
65717;SDS011;52445;52.466;-1.016;2023-02-11T08:55:10;10.07;;;3.03;;
65717;SDS011;52445;52.466;-1.016;2023-02-11T08:57:36;7.45;;;3.45;;
65717;SDS011;52445;52.466;-1.016;2023-02-11T09:00:03;17.40;;;5.85;;
65717;SDS011;52445;52.466;-1.016;2023-02-11T09:02:30;16.73;;;5.78;;
65717;SDS011;52445;52.466;-1.016;2023-02-11T09:04:57;15.45;;;5.22;;
65717;SDS011;52445;52.466;-1.016;2023-02-11T09:07:24;10.32;;;4.43;;
65717;SDS011;52445;52.466;-1.016;2023-02-11T09:09:50;19.02;;;6.35;;
65717;SDS011;52445;52.466;-1.016;2023-02-11T09:12:17;13.65;;;5.30;;
65717;SDS011;52445;52.466;-1.016;2023-02-11T09:14:43;15.63;;;5.07;;
65717;SDS011;52445;52.466;-1.016;2023-02-11T09:17:10;17.42;;;5.45;;
65717;SDS011;52445;52.466;-1.016;2023-02-11T09:19:38;15.65;;;5.22;;
65717;SDS011;52445;52.466;-1.016;2023-02-11T09:22:05;9.73;;;4.00;;
65717;SDS011;52445;52.466;-1.016;2023-02-11T09:24:33;11.02;;;4.38;;
65717;SDS011;52445;52.466;-1.016;2023-02-11T09:26:59;6.82;;;2.78;;
65717;SDS011;52445;52.466;-1.016;2023-02-11T09:29:26;13.38;;;3.72;;
65717;SDS011;52445;52.466;-1.016;2023-02-11T09:31:53;10.88;;;3.97;;
65717;SDS011;52445;52.466;-1.016;2023-02-11T09:34:19;12.10;;;3.53;;
65717;SDS011;52445;52.466;-1.016;2023-02-11T09:36:46;12.90;;;3.97;;
65717;SDS011;52445;52.466;-1.016;2023-02-11T09:39:14;15.75;;;4.55;;
65717;SDS011;52445;52.466;-1.016;2023-02-11T09:44:37;13.32;;;3.65;;
65717;SDS011;52445;52.466;-1.016;2023-02-11T09:47:05;8.25;;;3.40;;
65717;SDS011;52445;52.466;-1.016;2023-02-11T09:49:47;12.23;;;4.15;;
65717;SDS011;52445;52.466;-1.016;2023-02-11T09:55:25;4.90;;;1.77;;
65717;SDS011;52445;52.466;-1.016;2023-02-11T09:57:59;15.55;;;4.15;;
65717;SDS011;52445;52.466;-1.016;2023-02-11T10:00:32;20.27;;;6.53;;
65717;SDS011;52445;52.466;-1.016;2023-02-11T10:05:53;20.95;;;7.82;;
65717;SDS011;52445;52.466;-1.016;2023-02-11T10:16:50;9.60;;;5.25;;
65717;SDS011;52445;52.466;-1.016;2023-02-11T10:24:59;6.90;;;2.17;;
65717;SDS011;52445;52.466;-1.016;2023-02-11T10:27:32;6.78;;;2.75;;
65717;SDS011;52445;52.466;-1.016;2023-02-11T10:33:11;7.82;;;2.22;;
65717;SDS011;52445;52.466;-1.016;2023-02-11T10:35:44;10.00;;;2.38;;
65717;SDS011;52445;52.466;-1.016;2023-02-11T10:38:11;4.20;;;2.03;;
65717;SDS011;52445;52.466;-1.016;2023-02-11T10:40:38;6.95;;;2.00;;
65717;SDS011;52445;52.466;-1.016;2023-02-11T10:43:05;7.95;;;2.70;;
65717;SDS011;52445;52.466;-1.016;2023-02-11T10:45:46;10.70;;;3.10;;
65717;SDS011;52445;52.466;-1.016;2023-02-11T10:48:41;9.73;;;3.20;;
65717;SDS011;52445;52.466;-1.016;2023-02-11T10:51:17;6.13;;;2.60;;
65717;SDS011;52445;52.466;-1.016;2023-02-11T10:53:46;5.82;;;2.33;;
65717;SDS011;52445;52.466;-1.016;2023-02-11T10:59:13;5.47;;;2.38;;
65717;SDS011;52445;52.466;-1.016;2023-02-11T11:01:49;3.78;;;2.03;;
65717;SDS011;52445;52.466;-1.016;2023-02-11T11:07:21;6.45;;;2.85;;
65717;SDS011;52445;52.466;-1.016;2023-02-11T11:09:51;3.30;;;2.65;;
65717;SDS011;52445;52.466;-1.016;2023-02-11T11:12:26;7.95;;;3.15;;
65717;SDS011;52445;52.466;-1.016;2023-02-11T11:20:55;4.40;;;2.30;;
65717;SDS011;52445;52.466;-1.016;2023-02-11T11:23:25;4.00;;;1.60;;
65717;SDS011;52445;52.466;-1.016;2023-02-11T11:25:59;6.47;;;2.35;;
65717;SDS011;52445;52.466;-1.016;2023-02-11T11:28:59;5.03;;;1.58;;
65717;SDS011;52445;52.466;-1.016;2023-02-11T11:31:33;4.38;;;1.85;;
65717;SDS011;52445;52.466;-1.016;2023-02-11T11:34:18;6.53;;;1.52;;
65717;SDS011;52445;52.466;-1.016;2023-02-11T11:36:56;2.65;;;1.45;;
65717;SDS011;52445;52.466;-1.016;2023-02-11T11:39:32;3.10;;;2.22;;
65717;SDS011;52445;52.466;-1.016;2023-02-11T11:42:02;6.80;;;2.42;;
65717;SDS011;52445;52.466;-1.016;2023-02-11T11:44:32;4.60;;;1.50;;
65717;SDS011;52445;52.466;-1.016;2023-02-11T11:49:50;5.78;;;3.65;;
65717;SDS011;52445;52.466;-1.016;2023-02-11T11:55:20;2.72;;;1.75;;
65717;SDS011;52445;52.466;-1.016;2023-02-11T11:57:50;4.15;;;1.55;;
65717;SDS011;52445;52.466;-1.016;2023-02-11T12:00:18;3.20;;;1.55;;
65717;SDS011;52445;52.466;-1.016;2023-02-11T12:03:03;4.95;;;1.95;;
65717;SDS011;52445;52.466;-1.016;2023-02-11T12:14:15;3.72;;;1.50;;
65717;SDS011;52445;52.466;-1.016;2023-02-11T12:17:00;3.65;;;1.33;;
65717;SDS011;52445;52.466;-1.016;2023-02-11T12:25:15;5.18;;;1.90;;
65717;SDS011;52445;52.466;-1.016;2023-02-11T12:30:43;5.80;;;1.90;;
65717;SDS011;52445;52.466;-1.016;2023-02-11T12:33:35;3.45;;;2.13;;
65717;SDS011;52445;52.466;-1.016;2023-02-11T12:39:07;3.70;;;2.35;;
65717;SDS011;52445;52.466;-1.016;2023-02-11T12:41:51;4.45;;;1.75;;
65717;SDS011;52445;52.466;-1.016;2023-02-11T12:47:29;5.88;;;2.15;;
65717;SDS011;52445;52.466;-1.016;2023-02-11T12:52:57;4.55;;;3.45;;
65717;SDS011;52445;52.466;-1.016;2023-02-11T12:55:36;5.35;;;2.30;;
65717;SDS011;52445;52.466;-1.016;2023-02-11T12:58:12;5.35;;;3.20;;
65717;SDS011;52445;52.466;-1.016;2023-02-11T13:00:45;3.53;;;2.78;;
65717;SDS011;52445;52.466;-1.016;2023-02-11T13:03:20;7.55;;;3.17;;
65717;SDS011;52445;52.466;-1.016;2023-02-11T13:11:01;6.35;;;2.28;;
65717;SDS011;52445;52.466;-1.016;2023-02-11T13:13:34;5.47;;;2.20;;
65717;SDS011;52445;52.466;-1.016;2023-02-11T13:19:07;4.15;;;2.17;;
65717;SDS011;52445;52.466;-1.016;2023-02-11T13:27:17;5.90;;;2.70;;
65717;SDS011;52445;52.466;-1.016;2023-02-11T13:33:03;9.15;;;3.40;;
65717;SDS011;52445;52.466;-1.016;2023-02-11T13:35:33;4.05;;;2.08;;
65717;SDS011;52445;52.466;-1.016;2023-02-11T13:38:04;4.72;;;2.65;;
65717;SDS011;52445;52.466;-1.016;2023-02-11T13:40:43;7.82;;;3.28;;
65717;SDS011;52445;52.466;-1.016;2023-02-11T13:43:19;7.63;;;2.90;;
65717;SDS011;52445;52.466;-1.016;2023-02-11T13:45:49;3.65;;;2.50;;
65717;SDS011;52445;52.466;-1.016;2023-02-11T13:48:21;10.25;;;2.05;;
65717;SDS011;52445;52.466;-1.016;2023-02-11T13:50:52;3.65;;;2.10;;
65717;SDS011;52445;52.466;-1.016;2023-02-11T13:53:21;4.15;;;2.30;;
65717;SDS011;52445;52.466;-1.016;2023-02-11T13:55:50;5.53;;;2.53;;
65717;SDS011;52445;52.466;-1.016;2023-02-11T14:01:05;6.10;;;2.75;;
65717;SDS011;52445;52.466;-1.016;2023-02-11T14:03:35;5.30;;;2.03;;
65717;SDS011;52445;52.466;-1.016;2023-02-11T14:06:25;8.80;;;3.50;;
65717;SDS011;52445;52.466;-1.016;2023-02-11T14:11:52;8.98;;;5.32;;
65717;SDS011;52445;52.466;-1.016;2023-02-11T14:14:22;6.32;;;3.17;;
65717;SDS011;52445;52.466;-1.016;2023-02-11T14:19:33;6.28;;;4.20;;
65717;SDS011;52445;52.466;-1.016;2023-02-11T14:22:03;8.02;;;3.38;;
65717;SDS011;52445;52.466;-1.016;2023-02-11T14:24:42;6.05;;;3.58;;
65717;SDS011;52445;52.466;-1.016;2023-02-11T14:27:14;5.70;;;3.72;;
65717;SDS011;52445;52.466;-1.016;2023-02-11T14:32:44;3.97;;;2.53;;
65717;SDS011;52445;52.466;-1.016;2023-02-11T14:35:35;3.25;;;1.63;;
65717;SDS011;52445;52.466;-1.016;2023-02-11T14:41:25;4.63;;;2.10;;
65717;SDS011;52445;52.466;-1.016;2023-02-11T14:43:57;4.13;;;2.13;;
65717;SDS011;52445;52.466;-1.016;2023-02-11T14:46:27;4.30;;;1.80;;
65717;SDS011;52445;52.466;-1.016;2023-02-11T14:48:57;4.57;;;1.52;;
65717;SDS011;52445;52.466;-1.016;2023-02-11T14:51:28;5.50;;;2.40;;
65717;SDS011;52445;52.466;-1.016;2023-02-11T14:54:02;5.18;;;1.80;;
65717;SDS011;52445;52.466;-1.016;2023-02-11T14:56:42;3.67;;;1.50;;
65717;SDS011;52445;52.466;-1.016;2023-02-11T14:59:18;3.58;;;2.28;;
65717;SDS011;52445;52.466;-1.016;2023-02-11T15:01:48;5.57;;;2.25;;
65717;SDS011;52445;52.466;-1.016;2023-02-11T15:04:32;6.30;;;2.28;;
65717;SDS011;52445;52.466;-1.016;2023-02-11T15:07:03;4.63;;;1.75;;
65717;SDS011;52445;52.466;-1.016;2023-02-11T15:09:33;2.80;;;1.73;;
65717;SDS011;52445;52.466;-1.016;2023-02-11T15:12:08;2.95;;;2.30;;
65717;SDS011;52445;52.466;-1.016;2023-02-11T15:14:49;2.58;;;1.60;;
65717;SDS011;52445;52.466;-1.016;2023-02-11T15:17:20;6.32;;;1.40;;
65717;SDS011;52445;52.466;-1.016;2023-02-11T15:19:51;2.65;;;1.20;;
65717;SDS011;52445;52.466;-1.016;2023-02-11T15:22:22;4.95;;;2.50;;
65717;SDS011;52445;52.466;-1.016;2023-02-11T15:27:44;3.60;;;1.98;;
65717;SDS011;52445;52.466;-1.016;2023-02-11T15:32:58;5.97;;;1.63;;
65717;SDS011;52445;52.466;-1.016;2023-02-11T15:35:29;4.15;;;2.15;;
65717;SDS011;52445;52.466;-1.016;2023-02-11T15:38:06;3.85;;;2.78;;
65717;SDS011;52445;52.466;-1.016;2023-02-11T15:40:34;2.85;;;1.40;;
65717;SDS011;52445;52.466;-1.016;2023-02-11T15:43:03;2.70;;;1.50;;
65717;SDS011;52445;52.466;-1.016;2023-02-11T15:45:33;6.47;;;1.70;;
65717;SDS011;52445;52.466;-1.016;2023-02-11T15:48:05;4.22;;;1.70;;
65717;SDS011;52445;52.466;-1.016;2023-02-11T15:50:42;2.92;;;1.60;;
65717;SDS011;52445;52.466;-1.016;2023-02-11T15:53:19;4.13;;;1.42;;
65717;SDS011;52445;52.466;-1.016;2023-02-11T15:55:51;3.75;;;1.50;;
65717;SDS011;52445;52.466;-1.016;2023-02-11T15:58:22;3.20;;;1.63;;
65717;SDS011;52445;52.466;-1.016;2023-02-11T16:00:50;4.63;;;1.73;;
65717;SDS011;52445;52.466;-1.016;2023-02-11T16:03:25;3.95;;;1.73;;
65717;SDS011;52445;52.466;-1.016;2023-02-11T16:17:06;4.43;;;1.50;;
65717;SDS011;52445;52.466;-1.016;2023-02-11T16:19:41;3.35;;;1.17;;
65717;SDS011;52445;52.466;-1.016;2023-02-11T16:22:14;4.03;;;2.15;;
65717;SDS011;52445;52.466;-1.016;2023-02-11T16:24:44;4.55;;;1.58;;
65717;SDS011;52445;52.466;-1.016;2023-02-11T16:27:22;3.45;;;1.80;;
65717;SDS011;52445;52.466;-1.016;2023-02-11T16:29:54;3.47;;;2.58;;
65717;SDS011;52445;52.466;-1.016;2023-02-11T16:32:24;5.15;;;1.92;;
65717;SDS011;52445;52.466;-1.016;2023-02-11T16:34:53;3.47;;;1.20;;
65717;SDS011;52445;52.466;-1.016;2023-02-11T16:37:23;5.32;;;1.80;;
65717;SDS011;52445;52.466;-1.016;2023-02-11T16:39:54;4.60;;;1.70;;
65717;SDS011;52445;52.466;-1.016;2023-02-11T16:42:21;5.63;;;2.90;;
65717;SDS011;52445;52.466;-1.016;2023-02-11T16:44:48;5.03;;;2.17;;
65717;SDS011;52445;52.466;-1.016;2023-02-11T16:47:17;5.00;;;1.92;;
65717;SDS011;52445;52.466;-1.016;2023-02-11T16:49:48;3.95;;;2.00;;
65717;SDS011;52445;52.466;-1.016;2023-02-11T16:52:16;5.40;;;2.88;;
65717;SDS011;52445;52.466;-1.016;2023-02-11T16:54:43;2.90;;;1.77;;
65717;SDS011;52445;52.466;-1.016;2023-02-11T16:57:15;4.20;;;2.13;;
65717;SDS011;52445;52.466;-1.016;2023-02-11T16:59:52;5.35;;;2.63;;
65717;SDS011;52445;52.466;-1.016;2023-02-11T17:02:19;7.43;;;3.30;;
65717;SDS011;52445;52.466;-1.016;2023-02-11T17:04:51;4.25;;;3.20;;
65717;SDS011;52445;52.466;-1.016;2023-02-11T17:07:19;3.30;;;2.55;;
65717;SDS011;52445;52.466;-1.016;2023-02-11T17:09:46;3.95;;;2.45;;
65717;SDS011;52445;52.466;-1.016;2023-02-11T17:12:12;4.57;;;3.45;;
65717;SDS011;52445;52.466;-1.016;2023-02-11T17:14:39;4.10;;;2.67;;
65717;SDS011;52445;52.466;-1.016;2023-02-11T17:17:06;3.38;;;3.08;;
65717;SDS011;52445;52.466;-1.016;2023-02-11T17:19:33;3.90;;;3.30;;
65717;SDS011;52445;52.466;-1.016;2023-02-11T17:21:59;4.05;;;3.13;;